• Join FlightAware (Why Join?)
  • Login
  • US Flag 
09:43PM EST


 

Airport Tracker/Info


-or-


 

Live Flight TrackerFlight Track Log ✈ UAL4543 ✈ 20-Apr-2013 ✈ KSAT - KIAH

Flight Track Log - Related Links

Times and Time Zones

All times are in EDT time to prevent confusion due to time zone crossing. See the UAL4543 flight status page for this flight to view local times or setup timezone preferences in your user account.

Time Position Orientation Groundspeed Altitude Reporting Facility
EDT Latitude Longitude Course Direction KTS MPH feet Rate Location/Type
10:40AM 29.5203 -98.4594 117° Southeast 156 180 2,100  Level Houston Center
10:41AM 29.4864 -98.3836 117° Southeast 243 280 5,500 2,820 Climbing Houston Center
10:42AM 29.5106 -98.3039 71° East 266 306 8,600 2,580 Climbing Houston Center
10:43AM 29.5408 -98.2022 71° East 321 369 10,900 2,160 Climbing Houston Center
10:44AM 29.5550 -98.0894 82° East 362 417 13,100 2,160 Climbing Houston Center
10:45AM 29.5550 -97.9692 90° East 377 434 15,400 2,040 Climbing Houston Center
10:46AM 29.5567 -97.8336 89° East 398 458 17,300 1,620 Climbing Houston Center
10:47AM 29.5561 -97.6994 90° East 416 479 18,800 780 Climbing Houston Center
10:48AM 29.5556 -97.5608 90° East 428 493 19,000 60 Climbing Houston Center
10:49AM 29.5553 -97.4158 90° East 449 517 19,000  Level Houston Center
10:50AM 29.5542 -97.2750 90° East 442 509 19,000  Level Houston Center
10:51AM 29.5542 -97.1344 90° East 439 505 19,000  Level Houston Center
10:52AM 29.5536 -96.9914 90° East 442 509 19,000 -480 Level Houston Center
10:53AM 29.5514 -96.8478 91° East 443 510 18,100 -1,380 Descending Houston Center
10:54AM 29.5508 -96.7117 90° East 421 484 16,200 -2,160 Descending Houston Center
10:55AM 29.5500 -96.6461 91° East 412 474 15,200 -2,400 Descending Houston Center
10:55AM 29.5503 -96.5956 90° East 410 472 14,400 -1,500 Descending Houston Center
10:55AM 29.5500 -96.5794 91° East 413 475 14,200 -1,980 Descending Houston Center
10:56AM 29.5475 -96.4617 91° East 401 461 12,400 -2,340 Descending Houston Center
10:56AM 29.5486 -96.4264 88° East 400 460 11,800 -1,800 Descending Houston Center
10:57AM 29.5481 -96.3439 90° East 382 440 10,600 -1,560 Descending Houston Center
10:57AM 29.5458 -96.3081 94° East 375 432 10,200 -600 Descending Houston Center
10:58AM 29.5464 -96.2242 90° East 347 399 10,000 -300 Descending Houston Center
10:58AM 29.5447 -96.1975 94° East 352 405 9,900  Descending Houston Center
10:59AM 29.5669 -96.1233 71° East 327 376 10,000  Climbing Houston Center
10:59AM 29.5797 -96.1008 57° Northeast 338 389 9,900  Descending Houston Center
11:00AM 29.6194 -96.0239 59° Northeast 338 389 10,000 -420 Climbing Houston Center
11:01AM 29.6797 -95.9689 38° Northeast 292 336 9,200 -960 Descending Houston Center
11:01AM 29.6967 -95.9503 44° Northeast 291 335 8,800 -1,560 Descending Houston Center
11:02AM 29.7431 -95.9017 42° Northeast 283 326 7,600 -1,500 Descending Houston Center
11:02AM 29.7547 -95.8864 49° Northeast 289 333 7,300 -1,200 Descending Houston Center
11:03AM 29.7942 -95.8403 45° Northeast 264 304 6,400 -1,080 Descending Houston Center
11:04AM 29.8067 -95.8269 43° Northeast 267 307 6,200 -420 Descending Houston Center
11:04AM 29.8475 -95.7789 46° Northeast 267 307 6,000 -240 Descending Houston Center
11:05AM 29.8603 -95.7644 44° Northeast 271 312 6,000  Level Houston Center
11:05AM 29.9106 -95.7064 45° Northeast 273 314 6,000  Level Houston Center
11:06AM 29.9144 -95.7031 37° Northeast 272 313 6,000 -360 Level Houston Center
11:06AM 29.9581 -95.6525 45° Northeast 265 305 5,700 -900 Descending Houston Center
11:07AM 29.9753 -95.6322 46° Northeast 262 302 5,100 -1,500 Descending Houston Center
11:07AM 29.9944 -95.5881 63° Northeast 241 277 4,200 -1,380 Descending Houston Center
11:08AM 29.9942 -95.5608 91° East 244 281 3,700 -1,320 Descending Houston Center
11:08AM 29.9919 -95.5136 93° East 220 253 2,900 -1,200 Descending Houston Center
11:09AM 29.9936 -95.4897 85° East 228 262 2,500 -1,020 Descending Houston Center